Time;durP1;ratioP1;P1;durP2;ratioP2;P2;SDS_P1;SDS_P2;PMS_P1;PMS_P2;Temp;Humidity;BMP_temperature;BMP_pressure;BME280_temperature;BME280_humidity;BME280_pressure;Samples;Min_cycle;Max_cycle;Signal;HPM_P1;HPM_P2
2022/10/01 00:01:17;;;;;;;5.72;3.22;;;11.20;99.90;;;;;;5109016;28;20076;-83
2022/10/01 00:03:44;;;;;;;8.48;3.60;;;11.10;99.90;;;;;;5109248;28;20040;-83
2022/10/01 00:06:15;;;;;;;7.07;3.67;;;11.10;99.90;;;;;;5092472;28;20047;-84
2022/10/01 00:08:45;;;;;;;4.68;2.90;;;11.10;99.90;;;;;;5109277;28;20101;-83
2022/10/01 00:11:15;;;;;;;6.05;3.40;;;11.10;99.90;;;;;;5092763;28;20051;-83
2022/10/01 00:13:43;;;;;;;7.28;3.70;;;11.00;99.90;;;;;;5109260;28;20044;-83
2022/10/01 00:16:13;;;;;;;7.03;3.30;;;11.00;99.90;;;;;;5108994;28;20089;-83
2022/10/01 00:18:42;;;;;;;6.95;3.65;;;11.00;99.90;;;;;;5109491;28;20047;-83
2022/10/01 00:21:15;;;;;;;5.75;3.58;;;11.00;99.90;;;;;;5126198;28;20043;-82
2022/10/01 00:23:42;;;;;;;8.27;3.90;;;10.90;99.90;;;;;;5126228;28;20044;-83
2022/10/01 00:26:13;;;;;;;7.78;3.47;;;10.90;99.90;;;;;;5109005;28;20044;-83
2022/10/01 00:28:42;;;;;;;7.18;3.25;;;10.90;99.90;;;;;;5126055;28;20063;-83
2022/10/01 00:31:09;;;;;;;5.60;3.65;;;10.90;99.90;;;;;;5108862;28;20039;-83
2022/10/01 00:33:37;;;;;;;6.10;3.50;;;10.90;99.90;;;;;;5108898;28;20047;-83
2022/10/01 00:36:05;;;;;;;7.18;4.00;;;10.90;99.90;;;;;;5093895;28;20059;-83
2022/10/01 00:38:32;;;;;;;6.95;3.78;;;10.90;99.90;;;;;;5109366;28;20105;-83
2022/10/01 00:41:00;;;;;;;7.45;3.50;;;10.80;99.90;;;;;;5106398;28;20039;-83
2022/10/01 00:43:32;;;;;;;6.28;3.42;;;10.80;99.90;;;;;;5129626;28;20373;-83
2022/10/01 00:46:07;;;;;;;6.78;3.80;;;10.80;99.90;;;;;;5130221;28;20036;-82
2022/10/01 00:48:46;;;;;;;7.07;3.63;;;10.80;99.90;;;;;;5112550;28;20049;-83
2022/10/01 00:51:13;;;;;;;6.90;4.10;;;10.80;99.90;;;;;;5112504;28;20043;-83
2022/10/01 00:53:41;;;;;;;7.95;4.18;;;10.80;99.90;;;;;;5095855;28;20055;-83
2022/10/01 00:56:08;;;;;;;6.57;4.03;;;10.70;99.90;;;;;;5096309;28;20039;-83
2022/10/01 00:58:35;;;;;;;8.25;4.25;;;10.70;99.90;;;;;;5095806;28;20036;-83
2022/10/01 01:01:02;;;;;;;6.95;4.25;;;10.70;99.90;;;;;;5092411;28;20071;-84
2022/10/01 01:03:28;;;;;;;9.82;4.40;;;10.70;99.90;;;;;;5075624;28;20041;-83
2022/10/01 01:05:55;;;;;;;7.07;3.70;;;10.60;99.90;;;;;;5075557;28;20044;-83
2022/10/01 01:08:25;;;;;;;6.93;3.85;;;10.70;99.90;;;;;;5092950;28;20127;-83
2022/10/01 01:11:06;;;;;;;6.68;4.15;;;10.70;99.90;;;;;;5075707;28;20494;-83
2022/10/01 01:13:54;;;;;;;8.38;4.40;;;10.60;99.90;;;;;;5091863;28;20129;-83
2022/10/01 01:16:37;;;;;;;6.90;4.25;;;10.60;99.90;;;;;;5091870;28;20128;-82
2022/10/01 01:19:30;;;;;;;7.35;4.03;;;10.60;99.90;;;;;;5108791;28;20047;-83
2022/10/01 01:22:02;;;;;;;7.90;4.20;;;10.60;99.90;;;;;;5078548;28;20130;-83
2022/10/01 01:24:59;;;;;;;7.95;3.95;;;10.60;99.90;;;;;;5111978;28;20047;-83
2022/10/01 01:27:25;;;;;;;7.32;4.43;;;10.60;99.90;;;;;;5111986;28;20043;-83
2022/10/01 01:30:03;;;;;;;6.55;4.00;;;10.60;99.90;;;;;;5129224;28;20036;-83
2022/10/01 01:32:41;;;;;;;8.02;3.80;;;10.60;99.90;;;;;;5128965;28;20110;-83
2022/10/01 01:35:11;;;;;;;8.63;4.20;;;10.60;99.90;;;;;;5111940;28;20040;-83
2022/10/01 01:37:44;;;;;;;10.75;4.50;;;10.60;99.90;;;;;;5111664;28;20234;-83
2022/10/01 01:40:13;;;;;;;7.85;4.03;;;10.60;99.90;;;;;;5112300;28;20043;-83
2022/10/01 01:42:41;;;;;;;6.03;3.83;;;10.60;99.90;;;;;;5094780;28;20063;-83
2022/10/01 01:45:14;;;;;;;8.52;4.20;;;10.60;99.90;;;;;;5111751;28;20040;-83
2022/10/01 01:47:43;;;;;;;8.10;4.00;;;10.60;99.90;;;;;;5128014;28;20066;-83
2022/10/01 01:50:12;;;;;;;10.63;4.25;;;10.50;99.90;;;;;;5095242;28;20040;-83
2022/10/01 01:52:40;;;;;;;7.13;4.32;;;10.50;99.90;;;;;;5128296;28;20127;-83
2022/10/01 01:55:08;;;;;;;7.88;4.05;;;10.50;99.90;;;;;;5111162;28;20113;-83
2022/10/01 01:57:42;;;;;;;6.57;3.75;;;10.50;99.90;;;;;;5111165;28;20086;-83
2022/10/01 02:00:11;;;;;;;7.95;3.97;;;10.50;99.90;;;;;;5111708;28;20035;-84
2022/10/01 02:02:41;;;;;;;7.45;3.63;;;10.50;99.90;;;;;;5094743;28;20067;-83
2022/10/01 02:05:12;;;;;;;8.95;4.75;;;10.50;99.90;;;;;;5127952;28;20046;-83
2022/10/01 02:08:20;;;;;;;8.20;4.20;;;10.50;99.90;;;;;;5128102;28;20127;-84
2022/10/01 02:10:59;;;;;;;7.00;4.13;;;10.50;99.90;;;;;;5111143;28;20047;-83
2022/10/01 02:13:38;;;;;;;7.65;3.90;;;10.50;99.90;;;;;;5128126;28;20178;-83
2022/10/01 02:16:46;;;;;;;6.10;3.70;;;10.40;99.90;;;;;;5127902;28;20042;-83
2022/10/01 02:19:30;;;;;;;8.00;4.03;;;10.50;99.90;;;;;;5071124;28;20104;-83
2022/10/01 02:21:56;;;;;;;10.43;3.70;;;10.40;99.90;;;;;;5121116;28;20449;-83
2022/10/01 02:24:38;;;;;;;7.97;4.18;;;10.40;99.90;;;;;;5110690;28;20044;-83
2022/10/01 02:27:16;;;;;;;7.75;3.80;;;10.40;99.90;;;;;;5109737;28;20093;-83
2022/10/01 02:29:44;;;;;;;9.45;4.05;;;10.40;99.90;;;;;;5110727;28;20448;-83
2022/10/01 02:32:12;;;;;;;7.40;3.95;;;10.40;99.90;;;;;;5094274;28;20456;-83
2022/10/01 02:34:40;;;;;;;7.18;4.00;;;10.50;99.90;;;;;;5093626;28;20086;-82
2022/10/01 02:37:10;;;;;;;9.27;4.10;;;10.40;99.90;;;;;;5110677;28;20694;-83
2022/10/01 02:39:40;;;;;;;6.45;3.83;;;10.40;99.90;;;;;;5110369;28;20036;-82
2022/10/01 02:42:10;;;;;;;7.00;3.85;;;10.40;99.90;;;;;;5110623;28;20039;-83
2022/10/01 02:44:42;;;;;;;7.20;4.18;;;10.40;99.90;;;;;;5127082;28;20051;-82
2022/10/01 02:47:36;;;;;;;6.43;3.78;;;10.40;99.90;;;;;;5110267;28;20040;-83
2022/10/01 02:50:04;;;;;;;8.57;3.83;;;10.40;99.90;;;;;;5110767;28;20144;-83
2022/10/01 02:52:46;;;;;;;6.50;3.85;;;10.40;99.90;;;;;;5109721;28;20500;-82
2022/10/01 02:55:17;;;;;;;9.02;3.97;;;10.40;99.90;;;;;;5127132;28;20044;-82
2022/10/01 02:57:44;;;;;;;6.70;3.97;;;10.80;99.90;;;;;;5109704;28;20083;-82
2022/10/01 03:00:14;;;;;;;9.77;3.92;;;10.40;99.90;;;;;;5093039;28;20825;-83
2022/10/01 03:02:41;;;;;;;8.13;3.67;;;10.40;99.90;;;;;;5109647;28;20036;-82
2022/10/01 03:05:08;;;;;;;6.75;3.58;;;10.40;99.90;;;;;;5110003;28;20040;-82
2022/10/01 03:07:35;;;;;;;7.03;3.88;;;10.20;99.90;;;;;;5076812;28;20492;-82
2022/10/01 03:10:03;;;;;;;5.75;3.10;;;10.40;99.90;;;;;;5110486;28;20067;-82
2022/10/01 03:12:30;;;;;;;10.88;3.30;;;10.40;99.90;;;;;;5093335;28;20036;-82
2022/10/01 03:14:57;;;;;;;6.53;3.92;;;10.40;99.90;;;;;;5109652;28;20075;-82
2022/10/01 03:17:24;;;;;;;6.63;4.13;;;10.40;99.90;;;;;;5110383;28;20124;-82
2022/10/01 03:19:50;;;;;;;6.55;3.92;;;10.40;99.90;;;;;;5109733;28;20035;-83
2022/10/01 03:22:23;;;;;;;6.88;3.72;;;10.40;99.90;;;;;;5110288;28;20036;-82
2022/10/01 03:24:51;;;;;;;5.43;3.28;;;10.40;99.90;;;;;;5109902;28;20043;-82
2022/10/01 03:27:19;;;;;;;7.43;3.35;;;10.40;99.90;;;;;;5076494;28;20448;-82
2022/10/01 03:29:46;;;;;;;6.30;3.63;;;10.40;99.90;;;;;;5092861;28;20040;-82
2022/10/01 03:32:14;;;;;;;8.25;3.30;;;10.40;99.90;;;;;;5109755;28;20130;-81
2022/10/01 03:34:41;;;;;;;7.07;3.55;;;10.40;99.90;;;;;;5092921;28;20036;-82
2022/10/01 03:37:07;;;;;;;6.30;3.38;;;10.40;99.90;;;;;;5092960;28;20043;-82
2022/10/01 03:39:34;;;;;;;6.13;3.63;;;10.40;99.90;;;;;;5076071;28;20079;-82
2022/10/01 03:42:01;;;;;;;7.43;3.65;;;10.40;99.90;;;;;;5092765;28;20039;-81
2022/10/01 03:44:28;;;;;;;6.03;3.30;;;10.50;99.90;;;;;;5109497;28;20047;-82
2022/10/01 03:46:55;;;;;;;7.38;3.25;;;10.50;99.90;;;;;;5092059;28;20044;-82
2022/10/01 03:49:21;;;;;;;5.93;3.15;;;10.50;99.90;;;;;;5092855;28;20083;-82
2022/10/01 03:51:48;;;;;;;4.72;2.60;;;10.50;99.90;;;;;;5092225;28;20044;-82
2022/10/01 03:54:16;;;;;;;4.45;2.50;;;10.60;99.90;;;;;;5108963;28;20124;-82
2022/10/01 03:56:43;;;;;;;4.85;2.80;;;10.50;99.90;;;;;;5092743;28;20067;-81
2022/10/01 03:59:10;;;;;;;4.93;2.60;;;10.90;99.90;;;;;;5092309;28;20079;-82
2022/10/01 04:01:37;;;;;;;4.35;2.53;;;10.60;99.90;;;;;;5109146;28;20035;-82
2022/10/01 04:04:05;;;;;;;4.75;2.70;;;10.60;99.90;;;;;;5092507;28;20051;-82
2022/10/01 04:06:32;;;;;;;5.18;2.78;;;10.70;99.90;;;;;;5109251;28;20044;-82
2022/10/01 04:08:58;;;;;;;3.83;2.05;;;10.60;99.90;;;;;;5108810;28;20177;-82
2022/10/01 04:11:25;;;;;;;4.05;2.40;;;10.60;99.90;;;;;;5096023;28;20044;-82
2022/10/01 04:13:52;;;;;;;4.32;2.47;;;10.70;99.90;;;;;;5096219;28;20821;-82
2022/10/01 04:16:18;;;;;;;5.25;2.28;;;10.60;99.90;;;;;;5113567;28;20044;-82
2022/10/01 04:18:45;;;;;;;3.75;2.15;;;10.60;99.90;;;;;;5092542;28;20036;-82
2022/10/01 04:21:12;;;;;;;3.92;1.98;;;10.60;99.90;;;;;;5079962;28;20377;-82
2022/10/01 04:23:39;;;;;;;3.70;1.90;;;10.60;99.90;;;;;;5096295;28;20075;-82
2022/10/01 04:26:06;;;;;;;3.35;1.90;;;10.60;99.90;;;;;;5096105;28;20039;-82
2022/10/01 04:28:33;;;;;;;4.07;2.17;;;10.60;99.90;;;;;;5096436;28;20127;-82
2022/10/01 04:33:45;;;;;;;3.55;1.90;;;10.60;99.90;;;;;;5081140;28;20044;-82
2022/10/01 04:36:11;;;;;;;3.55;1.88;;;10.60;99.90;;;;;;5075948;28;20041;-83
2022/10/01 04:38:38;;;;;;;3.45;1.83;;;10.60;99.90;;;;;;5059689;28;20032;-83
2022/10/01 04:41:05;;;;;;;3.55;1.60;;;10.70;99.90;;;;;;5106709;28;20044;-83
2022/10/01 04:43:32;;;;;;;3.00;1.58;;;10.70;99.90;;;;;;5096216;28;20086;-82
2022/10/01 04:45:58;;;;;;;2.83;1.73;;;10.60;99.90;;;;;;5112680;28;20440;-82
2022/10/01 04:48:25;;;;;;;3.00;1.52;;;10.70;99.90;;;;;;5112943;28;20044;-82
2022/10/01 04:50:52;;;;;;;4.30;1.55;;;10.70;99.90;;;;;;5088503;28;20044;-82
2022/10/01 04:53:19;;;;;;;2.75;1.58;;;10.70;99.90;;;;;;5095643;28;20131;-82
2022/10/01 04:55:45;;;;;;;3.13;1.58;;;10.70;99.90;;;;;;5095741;28;20067;-82
2022/10/01 04:58:12;;;;;;;4.45;1.70;;;10.70;99.90;;;;;;5095435;28;20039;-82
2022/10/01 05:00:39;;;;;;;3.47;1.65;;;10.70;99.90;;;;;;5095320;28;20036;-83
2022/10/01 05:03:06;;;;;;;3.33;1.70;;;10.70;99.90;;;;;;5111956;28;20036;-83
2022/10/01 05:05:33;;;;;;;3.20;1.55;;;10.70;99.90;;;;;;5112184;28;20047;-83
2022/10/01 05:08:01;;;;;;;2.97;1.63;;;10.70;99.90;;;;;;5128893;28;20549;-82
2022/10/01 05:10:28;;;;;;;3.08;1.55;;;10.70;99.90;;;;;;5078832;28;20044;-83
2022/10/01 05:12:55;;;;;;;3.08;1.50;;;10.70;99.90;;;;;;5091818;28;20059;-83
2022/10/01 05:15:22;;;;;;;3.25;1.60;;;10.70;99.90;;;;;;5058985;28;20064;-82
2022/10/01 05:17:48;;;;;;;2.97;1.73;;;10.80;99.90;;;;;;5108534;28;20503;-82
2022/10/01 05:20:24;;;;;;;3.50;1.85;;;10.80;99.90;;;;;;5058669;28;20501;-82
2022/10/01 05:22:53;;;;;;;3.17;1.95;;;10.80;99.90;;;;;;5107696;28;20036;-82
2022/10/01 05:25:20;;;;;;;2.83;1.50;;;10.70;99.90;;;;;;5108435;28;20040;-82
2022/10/01 05:27:47;;;;;;;3.10;1.50;;;10.80;99.90;;;;;;5058773;28;20064;-82
2022/10/01 05:30:22;;;;;;;4.13;1.60;;;10.80;99.90;;;;;;5091251;28;20489;-82
2022/10/01 05:32:54;;;;;;;;;;;10.90;99.90;;;;;;5097940;28;20043;-82
2022/10/01 05:35:20;;;;;;;3.10;1.35;;;10.90;99.90;;;;;;5111548;28;20265;-82
2022/10/01 05:37:51;;;;;;;2.22;1.30;;;10.90;99.90;;;;;;5111761;28;20097;-82
2022/10/01 05:40:18;;;;;;;2.65;1.50;;;10.90;99.90;;;;;;5111183;28;20112;-82
2022/10/01 05:42:46;;;;;;;3.28;1.50;;;10.90;99.90;;;;;;5095116;28;20077;-82
2022/10/01 05:45:12;;;;;;;3.95;1.67;;;10.90;99.90;;;;;;5111088;28;20565;-82
2022/10/01 05:47:41;;;;;;;4.05;1.65;;;10.90;99.90;;;;;;5111329;28;20044;-82
2022/10/01 05:50:08;;;;;;;3.15;1.42;;;10.90;99.90;;;;;;5092793;28;20045;-82
2022/10/01 05:52:35;;;;;;;2.80;1.58;;;10.90;99.90;;;;;;5077449;28;20040;-82
2022/10/01 05:55:01;;;;;;;3.72;1.95;;;11.00;99.90;;;;;;5093373;28;20499;-82
2022/10/01 05:57:29;;;;;;;2.85;1.45;;;11.00;99.90;;;;;;5094524;28;20036;-83
2022/10/01 05:59:56;;;;;;;3.47;1.60;;;11.00;99.90;;;;;;5077533;28;20043;-82
2022/10/01 06:02:23;;;;;;;3.25;1.80;;;11.00;99.90;;;;;;5094035;28;20058;-82
2022/10/01 06:04:50;;;;;;;3.13;1.63;;;11.00;99.90;;;;;;5111011;28;20036;-82
2022/10/01 06:07:16;;;;;;;4.45;1.70;;;11.00;99.90;;;;;;5094192;28;20040;-82
2022/10/01 06:09:44;;;;;;;4.13;1.88;;;11.00;99.90;;;;;;5077606;28;20040;-82
2022/10/01 06:12:10;;;;;;;3.85;2.05;;;11.10;99.90;;;;;;5094596;28;20040;-82
2022/10/01 06:14:37;;;;;;;3.08;1.60;;;11.10;99.90;;;;;;5077317;28;20119;-83
2022/10/01 06:17:04;;;;;;;3.53;1.90;;;11.10;99.90;;;;;;5094133;28;20043;-82
2022/10/01 06:19:31;;;;;;;5.38;2.17;;;11.10;99.90;;;;;;5110948;28;20040;-83
2022/10/01 06:21:57;;;;;;;3.67;1.90;;;11.10;99.90;;;;;;5094358;28;20504;-82
2022/10/01 06:24:25;;;;;;;2.92;1.73;;;11.10;99.90;;;;;;5093876;28;20044;-82
2022/10/01 06:26:51;;;;;;;3.92;2.00;;;11.20;99.90;;;;;;5077601;28;20044;-83
2022/10/01 06:29:18;;;;;;;4.43;1.70;;;11.20;99.90;;;;;;5093904;28;20374;-82
2022/10/01 06:31:45;;;;;;;3.30;1.83;;;11.20;99.90;;;;;;5090641;28;20045;-83
2022/10/01 06:34:11;;;;;;;3.72;2.15;;;11.20;99.90;;;;;;5092128;28;20093;-83
2022/10/01 06:36:38;;;;;;;6.05;2.25;;;11.20;99.90;;;;;;5073769;28;20032;-82
2022/10/01 06:39:04;;;;;;;6.60;2.22;;;11.30;99.90;;;;;;5093845;28;20123;-82
2022/10/01 06:41:33;;;;;;;3.67;2.30;;;11.30;99.90;;;;;;5076851;28;20113;-83
2022/10/01 06:44:00;;;;;;;4.60;2.33;;;11.40;99.90;;;;;;5077666;28;20488;-83
2022/10/01 06:46:27;;;;;;;4.65;2.50;;;11.40;99.90;;;;;;5073170;28;20059;-82
2022/10/01 06:48:54;;;;;;;3.88;2.13;;;11.40;99.90;;;;;;5073264;28;20041;-83
2022/10/01 06:52:47;;;;;;;3.90;2.30;;;11.40;99.90;;;;;;5073380;28;20044;-82
2022/10/01 06:54:07;;;;;;;5.97;2.25;;;11.40;99.90;;;;;;5091916;28;20864;-83
2022/10/01 06:56:35;;;;;;;4.45;2.50;;;11.50;99.90;;;;;;5057107;28;20040;-82
2022/10/01 06:59:02;;;;;;;8.90;3.00;;;11.50;99.90;;;;;;5057340;28;20047;-82
2022/10/01 07:01:31;;;;;;;4.32;2.60;;;11.60;99.90;;;;;;5101785;28;20051;-82
2022/10/01 07:03:58;;;;;;;3.88;2.35;;;11.60;99.90;;;;;;5077322;28;20381;-83
2022/10/01 07:06:24;;;;;;;4.95;2.50;;;11.70;99.90;;;;;;5076821;28;20055;-83
2022/10/01 07:08:51;;;;;;;3.70;2.20;;;11.70;99.90;;;;;;5093570;28;20082;-83
2022/10/01 07:11:18;;;;;;;8.63;2.85;;;11.80;99.90;;;;;;5076511;28;20497;-83
2022/10/01 07:13:45;;;;;;;6.13;3.03;;;11.80;99.90;;;;;;5076607;28;20044;-83
2022/10/01 07:16:11;;;;;;;6.90;2.80;;;11.80;99.90;;;;;;5093489;28;20036;-81
2022/10/01 07:18:38;;;;;;;3.85;2.35;;;11.90;99.90;;;;;;5092957;28;20059;-83
2022/10/01 07:21:05;;;;;;;6.55;3.00;;;11.90;99.90;;;;;;5109651;28;20036;-83
2022/10/01 07:23:31;;;;;;;6.63;2.72;;;11.90;99.90;;;;;;5109544;28;20407;-83
2022/10/01 07:25:58;;;;;;;5.82;2.80;;;12.00;99.90;;;;;;5092916;28;20036;-83
2022/10/01 07:28:26;;;;;;;7.05;2.88;;;12.00;99.90;;;;;;5072670;28;20028;-82
2022/10/01 07:31:02;;;;;;;7.18;3.20;;;12.10;99.90;;;;;;5073008;28;20044;-83
2022/10/01 07:33:28;;;;;;;7.07;2.90;;;12.30;99.90;;;;;;5108054;28;20119;-83
2022/10/01 07:35:59;;;;;;;8.73;3.33;;;12.30;99.90;;;;;;5077528;28;20559;-83
2022/10/01 07:38:26;;;;;;;5.88;3.00;;;12.40;99.90;;;;;;5092762;28;20127;-83
2022/10/01 07:40:53;;;;;;;9.07;3.20;;;12.60;99.90;;;;;;5076183;28;20072;-83
2022/10/01 07:43:21;;;;;;;6.43;3.40;;;12.60;99.90;;;;;;5109039;28;20036;-83
2022/10/01 07:45:48;;;;;;;6.15;3.38;;;12.70;99.90;;;;;;5108736;28;20040;-84
2022/10/01 07:48:15;;;;;;;5.88;3.15;;;12.80;99.90;;;;;;5099612;28;20443;-83
2022/10/01 07:50:48;;;;;;;9.30;3.20;;;12.80;99.90;;;;;;5075784;28;20040;-83
2022/10/01 07:53:15;;;;;;;10.48;3.22;;;12.80;99.90;;;;;;5092912;28;20040;-83
2022/10/01 07:55:43;;;;;;;4.80;2.65;;;12.80;99.90;;;;;;5109462;28;20140;-83
2022/10/01 07:58:11;;;;;;;5.80;2.88;;;12.80;99.90;;;;;;5092689;28;20079;-83
2022/10/01 08:00:38;;;;;;;5.50;2.50;;;12.90;99.90;;;;;;5092686;28;20051;-83
2022/10/01 08:03:05;;;;;;;10.20;2.47;;;12.90;99.90;;;;;;5109300;28;20119;-83
2022/10/01 08:05:34;;;;;;;5.88;2.60;;;12.90;99.90;;;;;;5092479;28;20036;-83
2022/10/01 08:08:06;;;;;;;7.18;2.40;;;12.90;99.90;;;;;;5109505;28;20411;-83
2022/10/01 08:10:35;;;;;;;7.25;2.70;;;12.90;99.90;;;;;;5109010;28;20047;-83
2022/10/01 08:13:13;;;;;;;4.95;2.00;;;12.80;99.90;;;;;;5109532;28;20042;-83
2022/10/01 08:15:41;;;;;;;5.78;2.42;;;12.80;99.90;;;;;;5126053;28;20048;-83
2022/10/01 08:18:09;;;;;;;9.45;2.35;;;12.80;99.90;;;;;;5126248;28;20089;-83
2022/10/01 08:20:40;;;;;;;3.90;2.05;;;12.90;99.90;;;;;;5092473;28;20547;-83
2022/10/01 08:23:09;;;;;;;4.95;2.35;;;12.90;99.90;;;;;;5092763;28;20044;-83
2022/10/01 08:25:38;;;;;;;6.00;2.53;;;12.90;99.90;;;;;;5108785;28;20039;-84
2022/10/01 08:28:06;;;;;;;6.65;2.08;;;13.00;99.90;;;;;;5092474;28;20044;-83
2022/10/01 08:30:32;;;;;;;5.25;2.35;;;13.10;99.90;;;;;;5092148;28;20047;-84
2022/10/01 08:33:00;;;;;;;11.57;2.42;;;13.20;99.90;;;;;;5076169;28;20032;-84
2022/10/01 08:35:28;;;;;;;4.78;2.40;;;13.20;99.90;;;;;;5075634;28;20048;-84
2022/10/01 08:37:59;;;;;;;7.45;2.15;;;13.30;99.90;;;;;;5109169;28;20549;-84
2022/10/01 08:40:26;;;;;;;5.95;2.30;;;13.40;99.90;;;;;;5092977;28;20043;-83
2022/10/01 08:42:56;;;;;;;6.55;2.10;;;13.40;99.90;;;;;;5075588;28;20040;-84
2022/10/01 08:45:27;;;;;;;7.70;2.30;;;13.50;99.90;;;;;;5108702;28;20047;-83
2022/10/01 08:48:06;;;;;;;6.40;1.92;;;13.60;99.90;;;;;;5108764;28;20090;-83
2022/10/01 08:50:46;;;;;;;8.13;2.40;;;13.70;99.90;;;;;;5108858;28;20044;-82
2022/10/01 08:53:44;;;;;;;6.43;2.00;;;13.80;99.90;;;;;;5108557;28;20526;-82
2022/10/01 08:56:33;;;;;;;8.75;2.58;;;13.80;99.90;;;;;;5125215;28;20047;-82
2022/10/01 08:59:16;;;;;;;8.52;2.00;;;13.90;99.90;;;;;;5129745;28;20071;-82
2022/10/01 09:01:42;;;;;;;7.50;1.92;;;14.00;99.90;;;;;;5129009;28;20077;-82
2022/10/01 09:04:10;;;;;;;5.43;1.80;;;14.10;99.90;;;;;;5079186;28;20499;-82
2022/10/01 09:06:37;;;;;;;9.68;1.92;;;14.20;99.90;;;;;;5078961;28;20080;-82
2022/10/01 09:09:25;;;;;;;7.05;1.60;;;14.20;99.90;;;;;;5079454;28;20040;-82
2022/10/01 09:12:19;;;;;;;4.95;1.40;;;14.10;99.90;;;;;;5128832;28;20385;-82
2022/10/01 09:14:52;;;;;;;8.43;1.60;;;14.30;99.90;;;;;;5093144;28;20047;-82
2022/10/01 09:17:31;;;;;;;8.13;1.45;;;14.40;99.90;;;;;;5111830;28;20044;-82
2022/10/01 09:20:10;;;;;;;7.30;1.70;;;14.60;99.90;;;;;;5111626;28;20104;-82
2022/10/01 09:22:40;;;;;;;6.00;1.40;;;14.70;99.90;;;;;;5128750;28;20063;-82
2022/10/01 09:25:20;;;;;;;5.55;1.50;;;14.80;99.90;;;;;;5112018;28;20039;-82
2022/10/01 09:27:48;;;;;;;8.63;1.55;;;15.00;99.90;;;;;;5112033;28;20067;-82
2022/10/01 09:30:20;;;;;;;8.27;1.23;;;15.10;99.90;;;;;;5086960;28;20071;-82
2022/10/01 09:32:55;;;;;;;10.25;1.50;;;15.20;99.90;;;;;;5108164;28;20076;-82
2022/10/01 09:35:34;;;;;;;;;;;15.20;99.90;;;;;;5092068;28;20373;-82
2022/10/01 09:38:16;;;;;;;4.75;1.60;;;15.30;99.90;;;;;;5091366;28;20368;-82
2022/10/01 09:40:53;;;;;;;7.00;1.67;;;15.30;99.90;;;;;;5108196;28;20094;-82
2022/10/01 09:43:28;;;;;;;4.10;1.33;;;15.30;99.90;;;;;;5091451;28;20084;-82
2022/10/01 09:45:55;;;;;;;9.68;1.90;;;15.30;99.90;;;;;;5091386;28;20097;-83
2022/10/01 09:48:37;;;;;;;12.73;1.75;;;15.40;99.90;;;;;;5092072;28;20043;-82
2022/10/01 09:51:17;;;;;;;9.85;1.40;;;15.30;99.90;;;;;;5098211;28;20055;-82
2022/10/01 09:53:50;;;;;;;7.32;1.45;;;15.50;99.90;;;;;;5111047;28;20064;-82
2022/10/01 09:56:27;;;;;;;2.90;1.00;;;15.60;99.90;;;;;;5111241;28;20146;-82
2022/10/01 09:58:59;;;;;;;6.82;1.10;;;15.70;99.90;;;;;;5111371;28;20039;-82
2022/10/01 10:01:40;;;;;;;4.45;1.30;;;15.80;99.90;;;;;;5110949;28;20035;-82
2022/10/01 10:04:08;;;;;;;5.07;1.10;;;15.70;99.90;;;;;;5111259;28;20506;-82
2022/10/01 10:06:35;;;;;;;6.03;1.33;;;15.70;99.90;;;;;;5094754;28;20040;-82
2022/10/01 10:09:01;;;;;;;6.97;1.52;;;15.60;99.90;;;;;;5094233;28;20048;-82
2022/10/01 10:11:30;;;;;;;8.77;1.95;;;15.40;99.90;;;;;;5111134;28;20131;-82
2022/10/01 10:14:01;;;;;;;5.40;1.38;;;15.40;99.90;;;;;;5110513;28;20076;-82
2022/10/01 10:16:32;;;;;;;5.13;1.10;;;15.40;99.90;;;;;;5111003;28;20555;-82
2022/10/01 10:19:13;;;;;;;4.93;1.23;;;15.40;99.90;;;;;;5110943;28;20044;-82
2022/10/01 10:22:08;;;;;;;4.60;1.23;;;15.70;99.90;;;;;;5110956;28;20134;-83
2022/10/01 10:24:36;;;;;;;4.60;1.13;;;15.80;99.90;;;;;;5090863;28;20047;-82
2022/10/01 10:27:05;;;;;;;5.80;0.60;;;15.80;99.90;;;;;;5073617;28;20041;-82
2022/10/01 10:29:35;;;;;;;5.05;0.77;;;15.70;99.90;;;;;;5090661;28;20044;-82
2022/10/01 10:32:22;;;;;;;5.05;0.77;;;15.60;99.90;;;;;;5106956;28;20098;-82
2022/10/01 10:34:49;;;;;;;4.88;0.70;;;15.60;99.90;;;;;;5089920;28;20413;-83
2022/10/01 10:37:22;;;;;;;3.70;0.90;;;15.70;99.90;;;;;;5107094;28;20134;-82
2022/10/01 10:39:50;;;;;;;4.63;0.95;;;15.70;99.90;;;;;;5090059;28;20488;-82
2022/10/01 10:42:24;;;;;;;3.72;0.73;;;15.70;99.90;;;;;;5090190;28;20401;-82
2022/10/01 10:44:53;;;;;;;3.50;0.93;;;15.60;99.90;;;;;;5073908;28;20082;-82
2022/10/01 10:47:23;;;;;;;4.32;0.52;;;15.30;99.90;;;;;;5110383;28;20039;-82
2022/10/01 10:49:56;;;;;;;2.00;0.90;;;15.00;99.90;;;;;;5110652;28;20047;-82
2022/10/01 10:52:35;;;;;;;5.10;1.10;;;14.70;99.90;;;;;;5110194;28;20079;-82
2022/10/01 10:55:21;;;;;;;1.00;0.60;;;14.30;99.90;;;;;;5109664;28;20044;-82
2022/10/01 10:57:47;;;;;;;0.95;0.60;;;13.80;99.90;;;;;;5110090;28;20127;-83
2022/10/01 11:00:19;;;;;;;1.52;0.40;;;13.40;99.90;;;;;;5077062;28;20559;-83
2022/10/01 11:03:00;;;;;;;1.00;0.40;;;13.10;99.90;;;;;;5109830;28;20042;-83
2022/10/01 11:05:30;;;;;;;2.70;0.45;;;12.90;99.90;;;;;;5110114;28;20126;-83
2022/10/01 11:07:59;;;;;;;1.63;0.50;;;12.70;99.90;;;;;;5109967;28;20123;-83
2022/10/01 11:10:46;;;;;;;2.45;0.50;;;12.70;99.90;;;;;;5109939;28;20040;-83
2022/10/01 11:13:38;;;;;;;2.03;0.60;;;12.80;99.90;;;;;;5110094;28;20711;-83
2022/10/01 11:16:23;;;;;;;3.38;0.65;;;13.10;99.90;;;;;;5109621;28;20043;-83
2022/10/01 11:19:13;;;;;;;1.38;0.50;;;13.40;99.90;;;;;;5109564;28;20476;-83
2022/10/01 11:21:49;;;;;;;2.80;0.38;;;13.60;99.90;;;;;;5109893;28;20035;-82
2022/10/01 11:24:26;;;;;;;3.95;0.50;;;13.60;99.90;;;;;;5109780;28;20040;-83
2022/10/01 11:27:10;;;;;;;2.13;0.70;;;13.70;99.90;;;;;;5109263;28;20133;-82
2022/10/01 11:29:52;;;;;;;2.60;0.57;;;13.80;99.90;;;;;;5109920;28;20096;-82
2022/10/01 11:32:37;;;;;;;1.45;0.55;;;14.00;99.90;;;;;;5109747;28;20044;-82
2022/10/01 11:35:45;;;;;;;5.68;1.08;;;14.00;99.90;;;;;;5109382;28;20746;-82
2022/10/01 11:38:35;;;;;;;1.45;0.60;;;14.00;99.90;;;;;;5109493;28;20036;-82
2022/10/01 11:41:23;;;;;;;1.55;0.55;;;14.00;99.90;;;;;;5109364;28;20044;-82
2022/10/01 11:44:23;;;;;;;1.75;0.60;;;14.00;99.90;;;;;;5109192;28;20575;-83
2022/10/01 11:47:10;;;;;;;1.63;0.40;;;14.10;99.90;;;;;;5089385;28;20123;-83
2022/10/01 11:49:46;;;;;;;0.93;0.50;;;14.00;99.90;;;;;;5126379;28;20102;-82
2022/10/01 11:52:13;;;;;;;2.50;0.90;;;14.10;99.90;;;;;;5109156;28;20119;-82
2022/10/01 11:54:53;;;;;;;3.45;0.80;;;14.20;99.90;;;;;;5125848;28;20476;-82
2022/10/01 12:00:11;;;;;;;5.80;0.88;;;14.30;99.90;;;;;;5126053;28;20035;-83
2022/10/01 12:03:01;;;;;;;4.60;0.90;;;14.40;99.90;;;;;;5126123;28;20032;-82
2022/10/01 12:05:30;;;;;;;2.70;0.80;;;14.40;99.90;;;;;;5125936;28;20843;-82
2022/10/01 12:08:01;;;;;;;5.55;1.00;;;14.50;99.90;;;;;;5108758;28;20040;-82
2022/10/01 12:10:49;;;;;;;2.72;0.77;;;14.50;99.90;;;;;;5126019;28;20075;-82
2022/10/01 12:13:21;;;;;;;4.70;0.98;;;14.60;99.90;;;;;;5108711;28;20036;-82
2022/10/01 12:16:09;;;;;;;3.55;0.70;;;14.70;99.90;;;;;;5108999;28;20486;-82
2022/10/01 12:18:44;;;;;;;0.85;0.50;;;14.70;99.90;;;;;;5126154;28;20039;-82
2022/10/01 12:21:25;;;;;;;2.60;0.68;;;14.90;99.90;;;;;;5125610;28;20442;-82
2022/10/01 12:24:04;;;;;;;4.88;0.95;;;14.90;99.90;;;;;;5109108;28;20555;-82
2022/10/01 12:26:50;;;;;;;7.15;0.82;;;15.00;99.90;;;;;;5109280;28;20036;-82
2022/10/01 12:29:29;;;;;;;5.72;1.08;;;15.00;99.90;;;;;;5108794;28;20052;-82
2022/10/01 12:32:30;;;;;;;5.78;1.02;;;15.00;99.90;;;;;;5128136;28;20039;-83
2022/10/01 12:35:21;;;;;;;2.08;0.90;;;15.10;99.90;;;;;;5112524;28;20040;-83
2022/10/01 12:38:07;;;;;;;6.00;1.10;;;15.20;99.90;;;;;;5113157;28;20816;-82
2022/10/01 12:40:39;;;;;;;;;;;15.30;99.90;;;;;;5113542;28;20122;-82
2022/10/01 12:43:34;;;;;;;7.13;1.20;;;15.30;99.90;;;;;;5129420;28;20299;-83
2022/10/01 12:46:30;;;;;;;3.65;1.00;;;15.30;99.90;;;;;;5129396;28;20051;-83
2022/10/01 12:49:21;;;;;;;4.85;1.17;;;15.30;99.90;;;;;;5129893;28;20118;-82
2022/10/01 12:52:15;;;;;;;6.18;0.85;;;15.20;99.90;;;;;;5112982;28;20036;-82
2022/10/01 12:54:56;;;;;;;7.13;1.33;;;15.20;99.90;;;;;;5112392;28;20504;-82
2022/10/01 12:57:45;;;;;;;4.10;0.90;;;15.40;99.90;;;;;;5112556;28;20036;-82
2022/10/01 13:00:20;;;;;;;5.00;0.93;;;15.50;99.90;;;;;;5128926;28;20043;-82
2022/10/01 13:03:16;;;;;;;3.58;0.75;;;15.50;99.90;;;;;;5129219;28;20545;-82
2022/10/01 13:06:17;;;;;;;5.00;1.15;;;15.50;99.90;;;;;;5112430;28;20467;-82
2022/10/01 13:09:17;;;;;;;6.35;1.50;;;15.40;99.90;;;;;;5112777;28;20050;-82
2022/10/01 13:11:50;;;;;;;4.40;0.82;;;15.40;99.90;;;;;;5129272;28;20138;-82
2022/10/01 13:14:21;;;;;;;6.72;0.95;;;15.30;99.90;;;;;;5128732;28;20101;-82
2022/10/01 13:17:10;;;;;;;6.10;1.13;;;15.40;99.90;;;;;;5111908;28;20036;-82
2022/10/01 13:19:50;;;;;;;8.27;1.05;;;15.40;99.90;;;;;;5129253;28;20032;-82
2022/10/01 13:22:34;;;;;;;2.53;0.82;;;15.50;99.90;;;;;;5128681;28;20131;-82